Nearby METAR Reports

 

KTAN - Taunton, Massachusetts, USA
Distance from station: W 5mi, 8km
Updated: Sat, 19-Jun-2021 12:52pm EDT
Clear
Clear
 Wind from S
Wind: S 8 mph , 13 km/h
Temperature: 82°F , 28°C
Heat Index: 84°F , 29°C
Dew Point: 66°F , 19°C
Humidity: 58%
Barometer: 29.70 inHg , 1005.8 hPa
Clouds: Clear
Visibility: 10 miles , 16 km
2021/06/19 16:52 KTAN 191652Z AUTO 19007KT 180V260 10SM CLR 28/19 A2970 RMK AO2 SLP056 T02830194
KPYM - Plymouth, Massachusetts, USA
Distance from station: ENE 10mi, 16km
Updated: Sat, 19-Jun-2021 12:52pm EDT
Clear
Clear
 Wind from SSW
Wind: SSW 14 mph , 22 km/h
Temperature: 82°F , 28°C
Heat Index: 84°F , 29°C
Dew Point: 66°F , 19°C
Humidity: 58%
Barometer: 29.70 inHg , 1005.8 hPa
Clouds: Clear
Visibility: 10 miles , 16 km
2021/06/19 16:52 KPYM 191652Z AUTO 21012KT 10SM CLR 28/19 A2970 RMK AO2 SLP056 T02780189
 
KEWB - New Bedford, Massachusetts, USA
Distance from station: S 14mi, 23km
Updated: Sat, 19-Jun-2021 12:53pm EDT
Clear
Clear
 Wind from SW
Wind: SW 8 mph , 13 km/h
Temperature: 81°F , 27°C
Heat Index: 83°F , 28°C
Dew Point: 66°F , 19°C
Humidity: 62%
Barometer: 29.71 inHg , 1006.1 hPa
Clouds: Clear
Visibility: 10 miles , 16 km
2021/06/19 16:53 KEWB 191653Z 23007KT 10SM CLR 27/19 A2971 RMK AO2 SLP061 T02720194
KGHG - Marshfield, Massachusetts, USA
Distance from station: NE 20mi, 31km
Updated: Sat, 19-Jun-2021 12:35pm EDT
Clear
Clear
 Wind from varies
Wind: varies 7 mph , 11 km/h, Gust: 16 mph , 26 km/h
Temperature: 82°F , 28°C
Heat Index: 84°F , 29°C
Dew Point: 66°F , 19°C
Humidity: 58%
Barometer: 29.69 inHg , 1005.4 hPa
Clouds: Clear
Visibility: 10 miles , 16 km
2021/06/19 16:35 KGHG 191635Z AUTO VRB06G14KT 10SM CLR 28/19 A2969 RMK AO2
 
KOWD - Norwood, Massachusetts, USA
Distance from station: NNW 24mi, 39km
Updated: Sat, 19-Jun-2021 12:53pm EDT
Few Clouds
Few Clouds
 Wind from W
Wind: W 12 mph , 19 km/h, Gust: 17 mph , 28 km/h
Temperature: 88°F , 31°C
Heat Index: 91°F , 33°C
Dew Point: 66°F , 19°C
Humidity: 49%
Barometer: 29.69 inHg , 1005.4 hPa
Clouds: Few Clouds
Visibility: 10 miles , 16 km
Cloud details: Few Clouds 4200 ft
2021/06/19 16:53 KOWD 191653Z 26010G15KT 10SM FEW042 31/19 A2969 RMK AO2 SLP052 T03060189
KMQE - East Milton, Massachusetts, USA
Distance from station: NNW 25mi, 40km
Updated: Sat, 19-Jun-2021 12:51pm EDT

 Wind from WSW
Wind: WSW 9 mph , 15 km/h
Temperature: 82°F , 28°C
Heat Index: 84°F , 29°C
Dew Point: 66°F , 19°C
Humidity: 58%
Barometer: 29.71 inHg , 1006.1 hPa
2021/06/19 16:51 KMQE 191651Z AUTO 24008KT 28/19 A2971 RMK AO1 SLP065 T02780194
 
KFMH - Falmouth/Otis Ab, Massachusetts, USA
Distance from station: SE 27mi, 44km
Updated: Sat, 19-Jun-2021 12:45pm EDT

 Wind from SW
Wind: SW 16 mph , 26 km/h
Temperature: 75°F , 24°C
Dew Point: 66°F , 19°C
Humidity: 74%
Barometer: 29.73 inHg , 1006.8 hPa
Visibility: 7 miles , 11 km
2021/06/19 16:45 KFMH 191645Z 22014KT 7SM 24/19 A2973
KPVD - Providence/Green, Rhode Island, USA
Distance from station: WSW 29mi, 47km
Updated: Sat, 19-Jun-2021 12:51pm EDT
Mostly cloudy
Mostly cloudy
 Wind from SE
Wind: SE 9 mph , 15 km/h
Temperature: 82°F , 28°C
Heat Index: 85°F , 29°C
Dew Point: 68°F , 20°C
Humidity: 62%
Barometer: 29.71 inHg , 1006.1 hPa
Clouds: Mostly cloudy
Visibility: 10 miles , 16 km
Cloud details: Partly cloudy 4500 ft
Mostly cloudy 14000 ft
Mostly cloudy 25000 ft
2021/06/19 16:51 KPVD 191651Z 13008KT 10SM SCT045 BKN140 BKN250 28/20 A2971 RMK AO2 SLP061 T02830200
 
KSFZ - Pawtucket, Rhode Island, USA
Distance from station: W 30mi, 48km
Updated: Sat, 19-Jun-2021 12:56pm EDT
Mostly cloudy
Mostly cloudy
 Wind from varies
Wind: varies 7 mph , 11 km/h
Temperature: 82°F , 28°C
Heat Index: 86°F , 30°C
Dew Point: 72°F , 22°C
Humidity: 70%
Barometer: 29.73 inHg , 1006.8 hPa
Clouds: Mostly cloudy
Cloud details: Mostly cloudy 3900 ft
Mostly cloudy 4700 ft
2021/06/19 16:56 KSFZ 191656Z AUTO VRB06KT BKN039 BKN047 28/22 A2973 RMK AO2 SLP071 T02830217 $
KUUU - Newport, Rhode Island, USA
Distance from station: SW 31mi, 50km
Updated: Sat, 19-Jun-2021 12:53pm EDT
Clear
Clear
 Wind from S
Wind: S 13 mph , 20 km/h
Temperature: 75°F , 24°C
Dew Point: 66°F , 19°C
Humidity: 74%
Barometer: 29.73 inHg , 1006.8 hPa
Clouds: Clear
Visibility: 10 miles , 16 km
2021/06/19 16:53 KUUU 191653Z AUTO 19011KT 10SM CLR 24/19 A2973 RMK AO2 SLP066 T02440189
 
KOQU - N. Kingston/Quon, Rhode Island, USA
Distance from station: SW 32mi, 52km
Updated: Sat, 19-Jun-2021 12:50pm EDT
Mostly cloudy
Mostly cloudy
 Wind from S
Wind: S 15 mph , 24 km/h
Temperature: 79°F , 26°C
Dew Point: 66°F , 19°C
Humidity: 65%
Barometer: 29.71 inHg , 1006.1 hPa
Clouds: Mostly cloudy
Visibility: 10 miles , 16 km
Cloud details: Few Clouds 4500 ft
Mostly cloudy 20000 ft
2021/06/19 16:50 KOQU 191650Z 18013KT 10SM FEW045 BKN200 26/19 A2971
KBOS - Boston, Massachusetts, USA
Distance from station: N 33mi, 54km
Updated: Sat, 19-Jun-2021 12:54pm EDT
Mostly cloudy
Mostly cloudy
 Wind from WNW
Wind: WNW 9 mph , 15 km/h
Temperature: 88°F , 31°C
Heat Index: 91°F , 33°C
Dew Point: 66°F , 19°C
Humidity: 49%
Barometer: 29.69 inHg , 1005.4 hPa
Clouds: Mostly cloudy
Visibility: 10 miles , 16 km
Cloud details: Few Clouds 5000 ft
Partly cloudy 10000 ft
Partly cloudy 14000 ft
Mostly cloudy 25000 ft
2021/06/19 16:54 KBOS 191654Z 29008KT 240V360 10SM FEW050 SCT100 SCT140 BKN250 31/19 A2969 RMK AO2 SLP052 T03060189
 
KHYA - Hyannis, Massachusetts, USA
Distance from station: ESE 37mi, 59km
Updated: Sat, 19-Jun-2021 11:56am EDT
NOT Current
Clear
Clear
 Wind from SW
Wind: SW 23 mph , 37 km/h, Gust: 30 mph , 48 km/h
Temperature: 75°F , 24°C
Dew Point: 66°F , 19°C
Humidity: 74%
Barometer: 29.72 inHg , 1006.4 hPa
Clouds: Clear
Visibility: 10 miles , 16 km
2021/06/19 15:56 KHYA 191556Z 23020G26KT 10SM CLR 24/19 A2972 RMK AO2 PK WND 21026/1547 SLP065 T02440189
KMVY - Marthas Vineyard, Massachusetts, USA
Distance from station: SSE 37mi, 60km
Updated: Sat, 19-Jun-2021 12:53pm EDT
Few Clouds
Few Clouds
 Wind from SW
Wind: SW 16 mph , 26 km/h, Gust: 23 mph , 37 km/h
Temperature: 73°F , 23°C
Dew Point: 66°F , 19°C
Humidity: 78%
Barometer: 29.75 inHg , 1007.5 hPa
Clouds: Few Clouds
Visibility: 9 miles , 14 km
Cloud details: Few Clouds 1000 ft
2021/06/19 16:53 KMVY 191653Z 22014G20KT 9SM FEW010 23/19 A2975 RMK AO2 SLP072 T02280189
 
KPVC - Provincetown, Massachusetts, USA
Distance from station: ENE 38mi, 61km
Updated: Sat, 19-Jun-2021 12:56pm EDT
Few Clouds
Few Clouds
 Wind from SSW
Wind: SSW 14 mph , 22 km/h, Gust: 22 mph , 35 km/h
Temperature: 73°F , 23°C
Dew Point: 64°F , 18°C
Humidity: 74%
Barometer: 29.71 inHg , 1006.1 hPa
Clouds: Few Clouds
Visibility: 10 miles , 16 km
Cloud details: Few Clouds 9000 ft
2021/06/19 16:56 KPVC 191656Z AUTO 21012G19KT 10SM FEW090 23/18 A2971 RMK AO2 SLP061 T02280183
KBED - Bedford, Massachusetts, USA
Distance from station: NNW 44mi, 72km
Updated: Sat, 19-Jun-2021 12:51pm EDT
Clear
Clear
 Wind from WSW
Wind: WSW 8 mph , 13 km/h
Temperature: 84°F , 29°C
Heat Index: 86°F , 30°C
Dew Point: 66°F , 19°C
Humidity: 55%
Barometer: 29.68 inHg , 1005.1 hPa
Clouds: Clear
Visibility: 10 miles , 16 km
2021/06/19 16:51 KBED 191651Z 25007KT 10SM CLR 29/19 A2968 RMK AO2 SLP060 T02940194
 
KBVY - Beverly, Massachusetts, USA
Distance from station: 0 48mi, 77km
Updated: Sat, 19-Jun-2021 12:53pm EDT
Clear
Clear
 Wind from W
Wind: W 7 mph , 11 km/h
Temperature: 84°F , 29°C
Heat Index: 88°F , 31°C
Dew Point: 70°F , 21°C
Humidity: 62%
Barometer: 29.67 inHg , 1004.7 hPa
Clouds: Clear
Visibility: 10 miles , 16 km
2021/06/19 16:53 KBVY 191653Z 27006KT 10SM CLR 29/21 A2967 RMK AO2 SLP042 T02890206
KCQX - Chatham, Massachusetts, USA
Distance from station: ESE 49mi, 80km
Updated: Sat, 19-Jun-2021 12:52pm EDT
Clear
Clear
 Wind from SW
Wind: SW 16 mph , 26 km/h, Gust: 25 mph , 41 km/h
Temperature: 73°F , 23°C
Dew Point: 64°F , 18°C
Humidity: 74%
Barometer: 29.75 inHg , 1007.5 hPa
Clouds: Clear
Visibility: 10 miles , 16 km
2021/06/19 16:52 KCQX 191652Z AUTO 22014G22KT 10SM CLR 23/18 A2975 RMK AO2 SLP074 T02280178